Time;durP1;ratioP1;P1;durP2;ratioP2;P2;SDS_P1;SDS_P2;PMS_P1;PMS_P2;Temp;Humidity;BMP_temperature;BMP_pressure;BME280_temperature;BME280_humidity;BME280_pressure;Samples;Min_cycle;Max_cycle;Signal;HPM_P1;HPM_P2
2023/05/24 00:01:55;;;;;;;;;4.00;2.00;;;;;21.03;39.53;101726.41;5064681;27;72677;-71
2023/05/24 00:04:21;;;;;;;;;2.00;2.00;;;;;21.00;39.30;101730.13;5065325;28;45518;-71
2023/05/24 00:06:47;;;;;;;;;2.75;1.50;;;;;21.00;39.43;101731.91;5069711;27;45185;-71
2023/05/24 00:09:12;;;;;;;;;4.00;3.00;;;;;21.00;39.62;101718.59;5063658;27;47245;-71
2023/05/24 00:11:38;;;;;;;;;2.50;2.00;;;;;21.00;39.54;101722.16;5069261;27;45438;-71
2023/05/24 00:14:03;;;;;;;;;2.25;1.75;;;;;20.98;39.76;101710.72;5065728;28;73706;-71
2023/05/24 00:16:28;;;;;;;;;4.50;2.00;;;;;20.98;39.54;101712.50;5064799;27;45332;-71
2023/05/24 00:18:54;;;;;;;;;2.25;0.25;;;;;20.98;39.37;101712.50;5074309;28;45545;-71
2023/05/24 00:21:19;;;;;;;;;4.00;2.00;;;;;20.98;39.46;101712.50;5066050;28;68232;-72
2023/05/24 00:23:45;;;;;;;;;2.25;2.25;;;;;20.96;39.62;101709.94;5062123;28;45467;-71
2023/05/24 00:26:10;;;;;;;;;3.00;1.25;;;;;20.96;39.63;101709.94;5058322;28;56625;-71
2023/05/24 00:28:35;;;;;;;;;3.75;2.00;;;;;20.94;39.06;101706.50;5063923;27;68905;-71
2023/05/24 00:31:02;;;;;;;;;1.75;1.00;;;;;20.96;39.50;101711.75;5068487;27;45867;-71
2023/05/24 00:33:28;;;;;;;;;6.00;1.25;;;;;20.93;38.84;101707.47;5067222;27;45466;-71
2023/05/24 00:35:57;;;;;;;;;2.25;1.00;;;;;20.91;38.97;101701.38;5056906;28;45273;-71
2023/05/24 00:38:26;;;;;;;;;5.00;3.00;;;;;20.92;39.59;101700.41;5066396;27;45506;-71
2023/05/24 00:40:51;;;;;;;;;3.00;3.00;;;;;20.91;39.38;101693.38;5063370;28;45547;-71
2023/05/24 00:43:18;;;;;;;;;3.00;1.50;;;;;20.92;38.89;101697.75;5070006;27;45430;-71
2023/05/24 00:45:43;;;;;;;;;2.00;1.00;;;;;20.91;39.27;101684.53;5071409;27;45372;-71
2023/05/24 00:48:09;;;;;;;;;3.50;2.00;;;;;20.90;39.03;101691.66;5067141;27;45598;-71
2023/05/24 00:50:37;;;;;;;;;2.00;2.00;;;;;20.92;38.75;101697.75;5066652;27;46473;-71
2023/05/24 00:53:02;;;;;;;;;3.25;2.75;;;;;20.90;39.31;101696.13;5072327;27;72185;-71
2023/05/24 00:55:28;;;;;;;;;7.25;3.25;;;;;20.90;39.09;101691.66;5069652;27;45472;-71
2023/05/24 00:57:55;;;;;;;;;3.50;1.75;;;;;20.91;39.25;101681.88;5069184;27;45529;-71
2023/05/24 01:00:22;;;;;;;;;2.75;2.75;;;;;20.88;39.11;101682.91;5063295;27;48391;-71
2023/05/24 01:02:48;;;;;;;;;3.50;3.00;;;;;20.89;39.27;101673.97;5068062;27;46631;-71
2023/05/24 01:05:16;;;;;;;;;4.75;3.00;;;;;20.88;38.84;101674.94;5073194;27;45430;-71
2023/05/24 01:08:01;;;;;;;;;2.00;2.00;;;;;20.89;38.95;101678.44;5065775;28;45547;-71
2023/05/24 01:10:55;;;;;;;;;2.00;1.25;;;;;20.88;39.08;101679.41;5069245;27;46085;-71
2023/05/24 01:13:44;;;;;;;;;2.25;1.75;;;;;20.86;38.76;101685.66;5082490;27;45437;-71
2023/05/24 01:16:16;;;;;;;;;3.25;2.00;;;;;20.85;38.86;101683.91;5068022;27;45483;-71
2023/05/24 01:18:46;;;;;;;;;7.25;1.50;;;;;20.82;39.15;101681.44;5071926;27;45502;-71
2023/05/24 01:21:11;;;;;;;;;4.00;1.75;;;;;20.84;39.28;101687.53;5064029;28;45402;-71
2023/05/24 01:24:11;;;;;;;;;2.00;2.00;;;;;20.82;39.25;101689.44;5075894;27;45516;-71
2023/05/24 01:26:42;;;;;;;;;3.00;1.75;;;;;20.81;39.12;101692.16;5058214;28;45481;-71
2023/05/24 01:29:09;;;;;;;;;3.00;1.00;;;;;20.78;39.14;101685.19;5071925;27;45361;-71
2023/05/24 01:31:35;;;;;;;;;3.75;3.00;;;;;20.80;39.29;101682.47;5078999;27;65331;-71
2023/05/24 01:34:00;;;;;;;;;5.00;2.00;;;;;20.78;39.18;101677.22;5067704;28;54196;-71
2023/05/24 01:36:26;;;;;;;;;4.00;2.75;;;;;20.77;39.01;101682.63;5062871;28;66690;-71
2023/05/24 01:38:51;;;;;;;;;2.00;2.00;;;;;20.77;39.03;101686.16;5063982;27;71416;-71
2023/05/24 01:41:42;;;;;;;;;2.50;2.00;;;;;20.77;39.05;101699.47;5056738;28;47608;-71
2023/05/24 01:44:38;;;;;;;;;5.00;2.00;;;;;20.77;39.13;101698.59;5060069;27;45527;-71
2023/05/24 01:47:47;;;;;;;;;3.00;3.00;;;;;20.75;39.15;101697.81;5066010;27;45497;-71
2023/05/24 01:50:27;;;;;;;;;2.00;2.00;;;;;20.74;39.00;101696.09;5045193;27;45317;-71
2023/05/24 01:52:53;;;;;;;;;3.00;2.00;;;;;20.71;38.90;101691.81;5075416;27;46305;-71
2023/05/24 01:55:19;;;;;;;;;4.00;2.00;;;;;20.71;39.22;101691.81;5071239;27;45387;-72
2023/05/24 01:57:47;;;;;;;;;2.00;2.00;;;;;20.71;39.15;101699.78;5080116;27;45534;-71
2023/05/24 02:00:13;;;;;;;;;3.25;1.25;;;;;20.70;38.58;101703.41;5062566;27;45351;-71
2023/05/24 02:02:39;;;;;;;;;3.50;2.50;;;;;20.70;39.28;101695.41;5071094;28;45484;-71
2023/05/24 02:05:05;;;;;;;;;6.50;2.25;;;;;20.70;39.16;101686.56;5082292;27;45265;-71
2023/05/24 02:07:30;;;;;;;;;5.00;2.00;;;;;20.67;39.18;101693.78;5068892;27;45400;-71
2023/05/24 02:09:55;;;;;;;;;2.00;2.00;;;;;20.67;38.72;101704.41;5072506;28;59120;-71
2023/05/24 02:12:21;;;;;;;;;5.00;2.00;;;;;20.66;38.93;101700.06;5071029;27;70700;-71
2023/05/24 02:14:49;;;;;;;;;1.75;1.00;;;;;20.66;38.61;101701.81;5054999;28;69556;-71
2023/05/24 02:17:16;;;;;;;;;3.25;2.00;;;;;20.65;39.08;101703.63;5066120;27;45317;-71
2023/05/24 02:19:42;;;;;;;;;2.00;2.00;;;;;20.64;39.03;101701.06;5067153;27;45701;-71
2023/05/24 02:22:07;;;;;;;;;5.25;2.25;;;;;20.63;39.15;101689.56;5070398;28;45329;-71
2023/05/24 02:24:32;;;;;;;;;3.50;2.00;;;;;20.63;38.97;101694.03;5061487;27;65214;-71
2023/05/24 02:26:58;;;;;;;;;2.75;2.00;;;;;20.61;38.60;101690.53;5065513;27;62930;-71
2023/05/24 02:29:24;;;;;;;;;3.75;2.00;;;;;20.62;38.58;101687.00;5060906;28;63952;-71
2023/05/24 02:31:53;;;;;;;;;1.50;1.00;;;;;20.63;39.13;101689.56;5064599;28;45613;-71
2023/05/24 02:34:19;;;;;;;;;2.00;1.00;;;;;20.63;39.00;101702.00;5073335;28;45305;-71
2023/05/24 02:36:45;;;;;;;;;3.50;2.00;;;;;20.62;38.86;101692.31;5067683;27;45880;-71
2023/05/24 02:39:10;;;;;;;;;5.75;1.75;;;;;20.63;38.76;101686.06;5063336;28;65853;-71
2023/05/24 02:41:35;;;;;;;;;5.00;2.00;;;;;20.62;39.04;101679.84;5068066;28;45419;-71
2023/05/24 02:44:01;;;;;;;;;6.75;2.00;;;;;20.63;38.78;101689.56;5073220;27;68829;-71
2023/05/24 02:46:26;;;;;;;;;2.00;2.00;;;;;20.63;39.12;101686.91;5076522;28;66842;-71
2023/05/24 02:48:51;;;;;;;;;1.00;1.00;;;;;20.62;39.03;101685.19;5069198;27;68740;-71
2023/05/24 02:51:16;;;;;;;;;1.00;1.00;;;;;20.62;38.80;101673.69;5069738;27;69816;-71
2023/05/24 02:53:44;;;;;;;;;4.00;2.00;;;;;20.63;39.11;101678.94;5066359;27;73842;-71
2023/05/24 02:56:10;;;;;;;;;3.75;2.00;;;;;20.63;38.83;101664.78;5068278;28;45320;-71
2023/05/24 02:58:39;;;;;;;;;2.75;2.00;;;;;20.62;39.38;101669.22;5069730;27;45396;-71
2023/05/24 03:01:04;;;;;;;;;3.25;1.00;;;;;20.63;39.36;101665.63;5068810;28;45468;-71
2023/05/24 03:03:30;;;;;;;;;4.00;2.25;;;;;20.64;38.97;101667.31;5074200;27;45292;-71
2023/05/24 03:05:55;;;;;;;;;2.00;2.00;;;;;20.64;39.45;101661.16;5075601;27;65079;-71
2023/05/24 03:08:20;;;;;;;;;2.50;1.25;;;;;20.63;39.09;101662.97;5073261;27;72463;-71
2023/05/24 03:10:46;;;;;;;;;6.25;1.00;;;;;20.64;39.12;101666.47;5070349;27;45409;-71
2023/05/24 03:13:11;;;;;;;;;2.25;1.25;;;;;20.65;38.98;101670.88;5064571;27;47038;-71
2023/05/24 03:15:36;;;;;;;;;2.75;1.25;;;;;20.62;39.23;101655.06;5069823;27;55876;-71
2023/05/24 03:18:02;;;;;;;;;1.50;1.00;;;;;20.64;39.46;101658.50;5068962;27;52283;-71
2023/05/24 03:20:27;;;;;;;;;2.00;2.00;;;;;20.65;39.29;101666.41;5074122;28;63208;-71
2023/05/24 03:22:52;;;;;;;;;1.25;1.00;;;;;20.64;39.06;101661.16;5068625;28;70665;-71
2023/05/24 03:25:17;;;;;;;;;2.00;2.00;;;;;20.65;39.33;101665.56;5071976;28;57346;-71
2023/05/24 03:27:43;;;;;;;;;4.00;2.00;;;;;20.65;39.66;101652.25;5072679;27;69993;-71
2023/05/24 03:30:08;;;;;;;;;2.00;2.00;;;;;20.66;39.59;101661.94;5068695;27;71946;-71
2023/05/24 03:32:34;;;;;;;;;1.75;1.00;;;;;20.66;40.00;101665.47;5066635;28;45595;-71
2023/05/24 03:35:00;;;;;;;;;1.50;1.00;;;;;20.64;39.42;101661.16;5069800;28;63848;-71
2023/05/24 03:37:25;;;;;;;;;3.00;2.00;;;;;20.65;39.26;101660.22;5070728;27;45161;-71
2023/05/24 03:39:51;;;;;;;;;1.75;1.00;;;;;20.61;39.73;101655.97;5063063;28;46427;-71
2023/05/24 03:42:17;;;;;;;;;3.00;1.00;;;;;20.64;39.40;101667.31;5063877;27;69953;-71
2023/05/24 03:44:42;;;;;;;;;2.00;2.00;;;;;20.65;39.43;101674.38;5057072;28;45375;-71
2023/05/24 03:47:08;;;;;;;;;2.75;2.00;;;;;20.64;39.49;101671.81;5067280;27;45305;-71
2023/05/24 03:49:33;;;;;;;;;4.00;1.00;;;;;20.65;39.78;101669.06;5057271;28;47228;-71
2023/05/24 03:51:58;;;;;;;;;3.00;2.00;;;;;20.64;39.24;101656.69;5069655;27;49224;-71
2023/05/24 03:54:24;;;;;;;;;2.25;1.00;;;;;20.63;39.84;101668.28;5071326;27;45346;-71
2023/05/24 03:56:52;;;;;;;;;3.00;1.75;;;;;20.65;39.87;101670.88;5071678;27;45500;-71
2023/05/24 03:59:17;;;;;;;;;3.00;1.00;;;;;20.64;39.87;101677.13;5065309;27;45398;-71
2023/05/24 04:01:42;;;;;;;;;0.50;0.50;;;;;20.65;39.41;101676.19;5068805;28;45453;-71
2023/05/24 04:04:08;;;;;;;;;2.25;1.25;;;;;20.64;39.69;101682.44;5054914;28;68842;-71
2023/05/24 04:06:35;;;;;;;;;2.00;1.00;;;;;20.65;39.73;101678.84;5059537;27;69443;-71
2023/05/24 04:09:03;;;;;;;;;4.75;2.25;;;;;20.64;40.06;101682.44;5067458;27;45505;-71
2023/05/24 04:11:29;;;;;;;;;1.25;1.00;;;;;20.63;39.90;101684.25;5083413;27;45675;-71
2023/05/24 04:13:56;;;;;;;;;1.50;1.00;;;;;20.64;39.90;101680.63;5086228;27;47591;-71
2023/05/24 04:16:25;;;;;;;;;1.75;1.75;;;;;20.64;39.56;101677.97;5071694;28;45571;-71
2023/05/24 04:18:50;;;;;;;;;3.50;0.75;;;;;20.62;40.00;101679.84;5073970;27;46485;-71
2023/05/24 04:21:16;;;;;;;;;3.25;1.00;;;;;20.62;39.65;101679.00;5077254;27;45490;-71
2023/05/24 04:23:41;;;;;;;;;4.50;1.25;;;;;20.65;39.59;101686.84;5069663;27;68334;-71
2023/05/24 04:26:08;;;;;;;;;1.75;1.00;;;;;20.62;39.60;101682.50;5080403;27;73236;-71
2023/05/24 04:28:34;;;;;;;;;2.00;1.50;;;;;20.63;39.46;101692.22;5057409;28;46976;-71
2023/05/24 04:31:00;;;;;;;;;1.50;1.00;;;;;20.64;39.83;101695.72;5072653;28;45545;-71
2023/05/24 04:33:26;;;;;;;;;1.00;1.00;;;;;20.64;39.67;101695.72;5072716;27;45276;-71
2023/05/24 04:35:52;;;;;;;;;1.00;1.00;;;;;20.64;39.88;101701.91;5063306;28;45397;-71
2023/05/24 04:38:18;;;;;;;;;1.00;0.75;;;;;20.63;40.08;101705.53;5054983;28;47461;-71
2023/05/24 04:40:43;;;;;;;;;3.25;2.00;;;;;20.62;39.99;101702.94;5085018;27;45395;-71
2023/05/24 04:43:10;;;;;;;;;1.00;1.00;;;;;20.64;39.79;101711.69;5070696;27;47282;-71
2023/05/24 04:45:36;;;;;;;;;1.00;1.00;;;;;20.64;39.63;101715.19;5075186;27;45332;-71
2023/05/24 04:48:01;;;;;;;;;1.75;0.25;;;;;20.62;40.20;101714.44;5065484;27;45395;-71
2023/05/24 04:50:27;;;;;;;;;3.00;2.00;;;;;20.64;39.79;101715.19;5064657;27;45505;-71
2023/05/24 04:52:52;;;;;;;;;2.25;1.00;;;;;20.64;39.92;101717.88;5068250;27;45788;-71
2023/05/24 04:55:18;;;;;;;;;1.75;1.00;;;;;20.63;40.23;101715.31;5070273;28;62348;-71
2023/05/24 04:57:43;;;;;;;;;1.75;1.00;;;;;20.63;39.88;101718.81;5071877;27;45469;-71
2023/05/24 05:00:09;;;;;;;;;3.25;2.00;;;;;20.63;40.16;101712.66;5078602;27;71540;-71
2023/05/24 05:02:34;;;;;;;;;1.00;1.00;;;;;20.64;39.97;101719.69;5058759;28;45477;-71
2023/05/24 05:05:00;;;;;;;;;1.00;1.00;;;;;20.64;39.96;101725.00;5069398;27;45339;-71
2023/05/24 05:07:25;;;;;;;;;1.75;1.00;;;;;20.64;40.12;101728.50;5059844;28;46835;-71
2023/05/24 05:09:50;;;;;;;;;3.75;1.00;;;;;20.63;40.24;101716.16;5065128;28;67462;-72
2023/05/24 05:12:16;;;;;;;;;2.00;2.00;;;;;20.64;40.22;101719.69;5069998;27;45609;-72
2023/05/24 05:14:42;;;;;;;;;3.00;2.00;;;;;20.63;40.11;101724.16;5071605;27;45412;-72
2023/05/24 05:17:07;;;;;;;;;2.00;1.00;;;;;20.64;39.84;101719.69;5069744;27;45383;-72
2023/05/24 05:19:32;;;;;;;;;1.50;1.25;;;;;20.65;39.84;101718.75;5068654;27;45719;-71
2023/05/24 05:21:58;;;;;;;;;1.00;1.00;;;;;20.64;39.98;101723.19;5068247;27;61344;-71
2023/05/24 05:24:23;;;;;;;;;4.75;1.00;;;;;20.63;40.13;101710.84;5070572;28;47248;-71
2023/05/24 05:26:48;;;;;;;;;3.25;1.50;;;;;20.65;40.31;101719.59;5067745;27;71882;-71
2023/05/24 05:29:14;;;;;;;;;0.50;0.50;;;;;20.66;40.25;101728.44;5070887;27;52679;-71
2023/05/24 05:31:39;;;;;;;;;2.00;0.25;;;;;20.65;40.30;101716.09;5058708;28;45467;-72
2023/05/24 05:34:08;;;;;;;;;3.25;0.00;;;;;20.67;40.24;101715.03;5058046;28;45490;-71
2023/05/24 05:36:39;;;;;;;;;1.75;1.00;;;;;20.69;40.01;101709.66;5070067;28;46097;-72
2023/05/24 05:39:05;;;;;;;;;2.00;1.00;;;;;20.69;40.26;101709.66;5069074;27;45387;-71
2023/05/24 05:41:30;;;;;;;;;4.00;2.00;;;;;20.68;40.03;101710.56;5069418;28;45492;-71
2023/05/24 05:43:56;;;;;;;;;3.00;1.00;;;;;20.70;40.15;101714.03;5081307;27;71098;-71
2023/05/24 05:46:21;;;;;;;;;3.50;2.00;;;;;20.71;40.39;101715.75;5058409;27;75808;-71
2023/05/24 05:48:46;;;;;;;;;2.00;1.00;;;;;20.73;40.81;101718.31;5068769;28;64817;-71
2023/05/24 05:51:12;;;;;;;;;2.50;1.25;;;;;20.75;41.10;101717.31;5066265;27;45356;-71
2023/05/24 05:53:37;;;;;;;;;1.25;1.00;;;;;20.76;41.30;101718.16;5071535;27;45507;-71
2023/05/24 05:56:03;;;;;;;;;2.00;0.50;;;;;20.78;41.45;101716.28;5057003;28;47147;-70
2023/05/24 05:58:28;;;;;;;;;2.75;1.00;;;;;20.79;41.42;101723.31;5058780;28;45665;-70
2023/05/24 06:00:53;;;;;;;;;3.25;1.25;;;;;20.80;41.71;101725.88;5074879;27;45519;-70
2023/05/24 06:03:19;;;;;;;;;1.00;1.00;;;;;20.84;41.77;101726.56;5081072;27;63575;-70
2023/05/24 06:05:44;;;;;;;;;0.25;0.25;;;;;20.85;42.02;101722.97;5070857;27;46965;-70
2023/05/24 06:08:10;;;;;;;;;3.50;2.00;;;;;20.86;41.86;101730.03;5069736;27;45348;-70
2023/05/24 06:10:35;;;;;;;;;2.00;1.75;;;;;20.88;42.27;101729.94;5064002;27;45518;-70
2023/05/24 06:13:02;;;;;;;;;4.75;1.00;;;;;20.89;42.44;101719.19;5044770;27;46447;-70
2023/05/24 06:15:27;;;;;;;;;1.75;1.00;;;;;20.91;42.15;101719.13;5067010;27;46616;-71
2023/05/24 06:17:53;;;;;;;;;2.25;1.75;;;;;20.94;42.63;101726.94;5065332;27;70438;-71
2023/05/24 06:20:19;;;;;;;;;1.25;1.00;;;;;20.95;42.20;101734.00;5076756;27;45445;-71
2023/05/24 06:22:45;;;;;;;;;1.00;1.00;;;;;20.95;42.53;101732.19;5068227;27;45367;-71
2023/05/24 06:25:13;;;;;;;;;2.50;1.00;;;;;20.97;42.26;101740.09;5055404;28;46714;-70
2023/05/24 06:27:39;;;;;;;;;1.25;1.25;;;;;20.97;42.59;101740.94;5068783;28;45330;-71
2023/05/24 06:30:05;;;;;;;;;2.25;1.00;;;;;20.96;42.28;101736.53;5044343;28;45547;-71
2023/05/24 06:32:31;;;;;;;;;2.50;1.75;;;;;20.99;42.03;101752.34;5057205;28;45347;-71
2023/05/24 06:34:56;;;;;;;;;5.00;1.75;;;;;21.00;42.06;101745.22;5077768;28;67217;-71
2023/05/24 06:37:24;;;;;;;;;4.25;2.25;;;;;21.02;42.33;101751.34;5062430;28;61151;-71
2023/05/24 06:39:49;;;;;;;;;19.25;8.75;;;;;21.00;41.80;101748.75;5065322;28;45433;-76
2023/05/24 06:42:15;;;;;;;;;6.75;2.00;;;;;21.00;42.11;101747.88;5067730;28;46069;-73
2023/05/24 06:44:40;;;;;;;;;2.00;2.00;;;;;20.97;41.43;101743.59;5081813;27;75278;-72
2023/05/24 06:47:06;;;;;;;;;4.75;3.00;;;;;20.98;41.84;101741.78;5063435;28;71413;-72
2023/05/24 06:49:31;;;;;;;;;4.50;2.75;;;;;20.99;41.20;101749.69;5075423;28;45475;-73
2023/05/24 06:51:56;;;;;;;;;3.00;3.00;;;;;20.99;41.08;101752.34;5071141;28;45531;-71
2023/05/24 06:54:22;;;;;;;;;3.25;1.75;;;;;20.98;41.50;101744.44;5061619;28;51726;-72
2023/05/24 06:56:47;;;;;;;;;3.25;2.00;;;;;20.97;41.24;101740.94;5061226;28;53659;-71
2023/05/24 06:59:12;;;;;;;;;3.25;2.00;;;;;20.97;41.01;101737.44;5069832;28;45402;-72
2023/05/24 07:01:38;;;;;;;;;3.75;2.00;;;;;20.96;40.55;101747.19;5070218;28;45479;-71
2023/05/24 07:04:08;;;;;;;;;4.75;2.00;;;;;20.95;40.60;101736.66;5069880;28;48097;-72
2023/05/24 07:06:33;;;;;;;;;5.25;2.25;;;;;20.93;40.84;101750.03;5064399;28;45361;-71
2023/05/24 07:09:00;;;;;;;;;5.25;2.50;;;;;20.95;40.17;101749.97;5072550;28;61881;-72
2023/05/24 07:11:26;;;;;;;;;4.00;2.00;;;;;20.94;40.43;101750.88;5068289;28;45450;-71
2023/05/24 07:13:51;;;;;;;;;2.25;2.00;;;;;20.94;40.11;101750.88;5063659;28;46950;-71
2023/05/24 07:16:17;;;;;;;;;6.25;3.00;;;;;20.94;39.95;101754.41;5060514;28;70468;-71
2023/05/24 07:18:42;;;;;;;;;2.25;1.75;;;;;20.92;40.04;101758.94;5074472;28;45261;-71
2023/05/24 07:21:07;;;;;;;;;4.00;3.00;;;;;20.93;40.19;101759.81;5055805;28;45478;-71
2023/05/24 07:23:33;;;;;;;;;5.25;2.25;;;;;20.91;40.19;101757.25;5061812;28;57035;-71
2023/05/24 07:25:58;;;;;;;;;2.25;2.00;;;;;20.90;39.72;101760.84;5069645;28;74347;-71
2023/05/24 07:28:23;;;;;;;;;5.75;4.25;;;;;20.91;39.65;101753.72;5069126;28;65398;-71
2023/05/24 07:30:49;;;;;;;;;5.25;2.25;;;;;20.90;39.92;101752.84;5068436;28;57319;-72
2023/05/24 07:33:15;;;;;;;;;2.75;2.25;;;;;20.90;39.84;101754.66;5072765;27;45447;-71
2023/05/24 07:35:41;;;;;;;;;5.00;2.00;;;;;20.92;39.95;101760.75;5069478;28;45636;-71
2023/05/24 07:38:06;;;;;;;;;7.00;2.00;;;;;20.91;39.54;101761.69;5067462;28;45338;-71
2023/05/24 07:40:32;;;;;;;;;3.50;2.75;;;;;20.92;39.40;101756.28;5074919;27;64896;-71
2023/05/24 07:42:57;;;;;;;;;2.00;2.00;;;;;20.94;39.79;101766.84;5066584;27;71988;-70
2023/05/24 07:45:22;;;;;;;;;3.00;2.50;;;;;20.94;39.89;101756.22;5071894;28;63221;-72
2023/05/24 07:47:48;;;;;;;;;4.50;3.75;;;;;20.93;39.26;101766.00;5060978;28;45441;-72
2023/05/24 07:50:13;;;;;;;;;2.00;2.00;;;;;20.96;39.55;101770.28;5077531;27;65274;-72
2023/05/24 07:52:39;;;;;;;;;5.25;2.00;;;;;20.96;39.62;101762.31;5072349;27;46040;-72
2023/05/24 07:55:05;;;;;;;;;5.25;2.75;;;;;20.98;39.59;101769.28;5088818;27;69295;-72
2023/05/24 07:57:30;;;;;;;;;6.00;3.00;;;;;20.98;39.14;101768.41;5075245;27;45385;-72
2023/05/24 07:59:56;;;;;;;;;3.00;2.25;;;;;21.00;39.70;101769.16;5076237;27;45204;-71
2023/05/24 08:02:21;;;;;;;;;4.50;1.25;;;;;20.99;39.40;101765.66;5069474;28;45367;-72
2023/05/24 08:04:47;;;;;;;;;3.00;3.00;;;;;21.01;39.55;101765.56;5065258;28;45733;-72
2023/05/24 08:07:13;;;;;;;;;2.75;2.00;;;;;21.01;39.05;101761.09;5073219;28;45495;-72
2023/05/24 08:09:39;;;;;;;;;3.25;2.75;;;;;21.01;39.08;101763.75;5081630;27;45600;-72
2023/05/24 08:12:04;;;;;;;;;8.00;3.00;;;;;21.02;38.96;101754.84;5067494;28;45411;-72
2023/05/24 08:14:30;;;;;;;;;3.00;2.00;;;;;21.05;39.64;101765.34;5065884;28;45304;-72
2023/05/24 08:16:55;;;;;;;;;3.25;1.25;;;;;21.05;39.50;101753.81;5069554;28;45415;-72
2023/05/24 08:19:22;;;;;;;;;2.75;1.50;;;;;21.08;39.40;101766.09;5064663;28;45323;-72
2023/05/24 08:21:47;;;;;;;;;4.00;2.00;;;;;21.09;39.37;101765.16;5049520;28;47835;-72
2023/05/24 08:24:12;;;;;;;;;3.25;1.75;;;;;21.09;39.43;101762.47;5070641;28;45340;-72
2023/05/24 08:26:38;;;;;;;;;6.00;2.50;;;;;21.10;39.56;101770.38;5059003;28;45406;-72
2023/05/24 08:29:03;;;;;;;;;1.50;1.50;;;;;21.11;39.47;101769.47;5070320;28;45310;-72
2023/05/24 08:31:29;;;;;;;;;5.00;2.00;;;;;21.10;39.00;101767.72;5068697;27;45714;-72
2023/05/24 08:33:56;;;;;;;;;3.00;1.25;;;;;21.12;38.90;101770.31;5067274;28;45468;-72
2023/05/24 08:36:21;;;;;;;;;4.00;2.00;;;;;21.12;39.21;101768.50;5057093;28;45409;-72
2023/05/24 08:38:47;;;;;;;;;2.00;2.00;;;;;21.12;38.89;101764.97;5058437;28;59322;-72
2023/05/24 08:41:12;;;;;;;;;3.50;3.00;;;;;21.11;39.41;101766.78;5064335;28;72739;-72
2023/05/24 08:43:41;;;;;;;;;4.25;2.75;;;;;21.12;38.97;101762.31;5073069;28;64844;-72
2023/05/24 08:46:06;;;;;;;;;1.50;1.00;;;;;21.12;38.90;101754.34;5068253;28;45517;-72
2023/05/24 08:48:33;;;;;;;;;2.00;2.00;;;;;21.15;38.82;101768.34;5066596;28;72014;-72
2023/05/24 08:50:59;;;;;;;;;3.00;2.00;;;;;21.14;39.14;101756.00;5058802;28;47457;-72
2023/05/24 08:53:25;;;;;;;;;3.50;1.25;;;;;21.13;39.20;101770.22;5076758;28;45447;-73
2023/05/24 08:55:54;;;;;;;;;4.00;1.00;;;;;21.14;39.06;101763.97;5066485;28;45435;-72
2023/05/24 08:58:20;;;;;;;;;2.00;1.00;;;;;21.16;38.93;101762.09;5070128;28;45312;-72
2023/05/24 09:00:45;;;;;;;;;2.50;1.00;;;;;21.17;39.26;101749.63;5075800;28;45415;-72
2023/05/24 09:03:11;;;;;;;;;2.00;2.00;;;;;21.17;38.96;101755.78;5069597;28;45467;-72
2023/05/24 09:05:36;;;;;;;;;1.75;1.75;;;;;21.17;39.06;101753.13;5068866;28;66297;-75
2023/05/24 09:08:02;;;;;;;;;4.50;2.00;;;;;21.17;38.83;101750.47;5069972;28;64957;-72
2023/05/24 09:10:29;;;;;;;;;2.75;1.00;;;;;21.19;39.13;101750.38;5068764;28;47119;-74
2023/05/24 09:12:56;;;;;;;;;2.00;1.00;;;;;21.19;38.55;101750.38;5071405;28;46604;-74
2023/05/24 09:15:21;;;;;;;;;2.50;1.75;;;;;21.22;39.23;101744.91;5054617;28;45338;-73
2023/05/24 09:17:47;;;;;;;;;3.00;1.25;;;;;21.20;38.86;101746.81;5072009;28;46009;-72
2023/05/24 09:20:12;;;;;;;;;1.75;1.00;;;;;21.21;38.66;101744.06;5061066;28;70901;-72
2023/05/24 09:22:41;;;;;;;;;1.25;1.00;;;;;21.23;39.28;101738.66;5076451;28;45529;-72
2023/05/24 09:25:07;;;;;;;;;2.00;1.25;;;;;21.23;39.18;101744.81;5062165;28;45346;-72
2023/05/24 09:27:36;;;;;;;;;3.25;2.75;;;;;21.24;39.18;101743.00;5066909;28;45226;-71
2023/05/24 09:30:04;;;;;;;;;11.25;2.00;;;;;21.27;39.01;101742.84;5051399;28;47347;-71
2023/05/24 09:32:30;;;;;;;;;4.50;2.00;;;;;21.28;39.36;101747.22;5067664;28;45439;-71
2023/05/24 09:34:56;;;;;;;;;3.50;1.00;;;;;21.30;39.16;101747.13;5066230;27;45362;-72
2023/05/24 09:37:26;;;;;;;;;5.75;1.00;;;;;21.29;39.69;101746.28;5067779;28;45445;-72
2023/05/24 09:39:51;;;;;;;;;6.25;2.00;;;;;21.31;39.28;101738.22;5060116;28;45470;-71
2023/05/24 09:42:20;;;;;;;;;6.50;1.75;;;;;21.32;39.33;101743.44;5068054;28;45580;-71
2023/05/24 09:44:48;;;;;;;;;3.00;1.25;;;;;21.33;39.64;101753.13;5061374;28;45484;-71
2023/05/24 09:47:14;;;;;;;;;3.75;1.75;;;;;21.33;39.57;101742.47;5064452;28;45612;-71
2023/05/24 09:49:40;;;;;;;;;7.00;2.75;;;;;21.35;39.73;101751.25;5059462;28;47387;-75
2023/05/24 09:52:05;;;;;;;;;5.25;2.25;;;;;21.36;39.86;101744.97;5066476;28;45382;-74
2023/05/24 09:54:32;;;;;;;;;4.00;2.00;;;;;21.37;39.30;101752.03;5055072;28;45304;-74
2023/05/24 09:57:02;;;;;;;;;6.50;1.50;;;;;21.37;39.46;101740.50;5071424;28;45685;-74
2023/05/24 09:59:31;;;;;;;;;4.50;2.00;;;;;21.38;39.22;101748.41;5059670;28;45548;-74
2023/05/24 10:02:09;;;;;;;;;4.50;2.50;;;;;21.38;39.67;101743.09;5072928;28;46274;-74
2023/05/24 10:04:34;;;;;;;;;4.25;2.00;;;;;21.40;39.52;101740.34;5057912;28;45498;-74
2023/05/24 10:07:01;;;;;;;;;7.75;4.00;;;;;21.41;39.43;101740.25;5074335;28;45757;-74
2023/05/24 10:09:32;;;;;;;;;9.50;3.75;;;;;21.42;39.38;101730.47;5065379;28;46314;-72
2023/05/24 10:12:01;;;;;;;;;6.25;3.00;;;;;21.43;39.40;101733.03;5061960;28;45683;-75
2023/05/24 10:14:30;;;;;;;;;5.50;3.00;;;;;21.46;39.59;101729.38;5070356;27;45446;-74
2023/05/24 10:16:55;;;;;;;;;5.25;1.00;;;;;21.48;39.37;101727.50;5064853;28;45508;-76
2023/05/24 10:19:22;;;;;;;;;5.50;2.75;;;;;21.46;39.98;101715.19;5066903;28;45440;-73
2023/05/24 10:21:48;;;;;;;;;30.00;8.50;;;;;21.50;39.91;101732.75;5071730;28;45351;-73
2023/05/24 10:24:17;;;;;;;;;13.25;4.75;;;;;21.50;39.49;101719.41;5081649;27;45351;-73
2023/05/24 10:26:46;;;;;;;;;4.75;3.00;;;;;21.52;39.88;101723.69;5060292;28;45511;-74
2023/05/24 10:29:40;;;;;;;;;10.50;4.00;;;;;21.52;39.36;101722.84;5070797;28;46166;-72
2023/05/24 10:32:06;;;;;;;;;4.75;2.50;;;;;21.53;39.00;101730.75;5054161;28;46060;-73
2023/05/24 10:34:33;;;;;;;;;7.75;5.50;;;;;21.52;39.36;101718.38;5052790;28;45431;-73
2023/05/24 10:36:59;;;;;;;;;7.25;2.00;;;;;21.54;39.17;101727.13;5065207;28;45539;-73
2023/05/24 10:39:25;;;;;;;;;6.25;2.00;;;;;21.53;39.39;101713.91;5059224;28;46599;-74
2023/05/24 10:41:51;;;;;;;;;4.50;2.00;;;;;21.53;39.27;101720.09;5080748;27;45961;-73
2023/05/24 10:44:18;;;;;;;;;8.75;2.00;;;;;21.53;39.26;101720.09;5078389;27;70406;-73
2023/05/24 10:47:15;;;;;;;;;7.00;2.00;;;;;21.55;39.38;101718.19;5070030;27;47113;-73
2023/05/24 10:49:53;;;;;;;;;3.00;2.25;;;;;21.54;39.14;101727.13;5057652;27;47280;-71
2023/05/24 10:52:18;;;;;;;;;1.25;0.25;;;;;21.55;39.25;101725.34;5067307;27;45265;-76
2023/05/24 10:55:04;;;;;;;;;2.50;2.00;;;;;21.56;39.18;101719.91;5095230;27;45349;-73
2023/05/24 10:57:31;;;;;;;;;3.00;2.50;;;;;21.54;38.67;101716.47;5085829;27;45343;-73
2023/05/24 10:59:57;;;;;;;;;2.50;0.25;;;;;21.56;38.89;101725.22;5066289;27;46152;-73
2023/05/24 11:02:27;;;;;;;;;2.75;1.00;;;;;21.54;38.61;101719.13;5081503;27;45504;-76
2023/05/24 11:04:52;;;;;;;;;7.00;2.00;;;;;21.55;38.65;101728.00;5082337;27;45466;-74
2023/05/24 11:07:18;;;;;;;;;5.75;3.00;;;;;21.55;38.27;101717.34;5069730;27;45447;-74
2023/05/24 11:09:51;;;;;;;;;8.00;6.00;;;;;21.56;38.44;101722.56;5073206;27;45347;-74
2023/05/24 11:12:17;;;;;;;;;7.25;6.00;;;;;21.56;38.14;101711.06;5073531;27;45403;-74
2023/05/24 11:14:48;;;;;;;;;10.75;8.25;;;;;21.57;38.77;101720.78;5077757;27;45552;-74
2023/05/24 11:17:15;;;;;;;;;12.00;9.75;;;;;21.57;38.35;101726.97;5077220;27;45816;-73
2023/05/24 11:19:49;;;;;;;;;15.25;12.25;;;;;21.58;38.73;101711.81;5053480;27;47345;-74
2023/05/24 11:22:15;;;;;;;;;17.25;13.25;;;;;21.58;38.78;101714.50;5099733;27;45413;-73
2023/05/24 11:24:41;;;;;;;;;13.00;10.00;;;;;21.58;38.98;101722.47;5085150;27;45701;-73